createdAt,value
2018-04-13T00:00:53.334Z,1.87
2018-04-13T00:03:20.850Z,2.40
2018-04-13T00:05:48.410Z,2.00
2018-04-13T00:08:17.200Z,2.10
2018-04-13T00:10:45.536Z,2.20
2018-04-13T00:13:24.410Z,1.83
2018-04-13T00:22:37.453Z,2.17
2018-04-13T00:25:05.011Z,1.83
2018-04-13T00:27:32.527Z,2.22
2018-04-13T00:30:00.099Z,1.90
2018-04-13T00:32:27.606Z,2.23
2018-04-13T00:34:55.123Z,2.10
2018-04-13T00:37:23.268Z,2.10
2018-04-13T00:39:50.791Z,2.50
2018-04-13T00:42:19.077Z,2.13
2018-04-13T00:44:47.446Z,1.87
2018-04-13T00:47:16.506Z,2.50
2018-04-13T00:49:44.031Z,2.30
2018-04-13T00:52:11.573Z,2.70
2018-04-13T00:54:39.086Z,2.70
2018-04-13T00:57:06.606Z,2.05
2018-04-13T00:59:34.139Z,2.00
2018-04-13T01:02:01.672Z,2.40
2018-04-13T01:04:29.183Z,2.47
2018-04-13T01:06:57.340Z,2.43
2018-04-13T01:09:24.901Z,2.37
2018-04-13T01:11:52.420Z,2.73
2018-04-13T01:14:19.959Z,3.87
2018-04-13T01:16:47.475Z,3.20
2018-04-13T01:19:15.643Z,2.70
2018-04-13T01:21:43.223Z,3.60
2018-04-13T01:24:11.536Z,3.00
2018-04-13T01:26:39.057Z,3.13
2018-04-13T01:29:07.145Z,2.80
2018-04-13T01:31:34.726Z,2.90
2018-04-13T01:34:02.242Z,3.47
2018-04-13T01:36:29.811Z,3.00
2018-04-13T01:38:58.089Z,2.70
2018-04-13T01:41:25.615Z,2.80
2018-04-13T01:43:53.164Z,3.07
2018-04-13T01:46:21.445Z,2.93
2018-04-13T01:48:49.740Z,6.63
2018-04-13T01:51:17.770Z,4.23
2018-04-13T01:53:46.058Z,4.23
2018-04-13T01:56:25.548Z,3.83
2018-04-13T02:02:49.633Z,2.10
2018-04-13T02:05:17.208Z,2.10
2018-04-13T02:07:44.730Z,2.67
2018-04-13T02:10:12.518Z,2.30
2018-04-13T02:12:40.051Z,1.90
2018-04-13T02:15:07.559Z,3.20
2018-04-13T02:17:35.928Z,3.73
2018-04-13T02:20:03.442Z,4.07
2018-04-13T02:22:31.742Z,4.50
2018-04-13T02:24:59.281Z,7.30
2018-04-13T02:27:26.840Z,3.87
2018-04-13T02:29:54.371Z,2.63
2018-04-13T02:32:23.064Z,2.50
2018-04-13T02:34:51.357Z,2.30
2018-04-13T02:37:19.644Z,2.53
2018-04-13T02:39:47.964Z,2.30
2018-04-13T02:42:16.484Z,2.90
2018-04-13T02:44:44.784Z,3.53
2018-04-13T02:47:12.328Z,2.80
2018-04-13T02:49:39.908Z,2.87
2018-04-13T02:52:07.474Z,2.30
2018-04-13T02:54:35.353Z,2.70
2018-04-13T02:57:02.883Z,2.57
2018-04-13T02:59:30.411Z,2.70
2018-04-13T03:01:58.731Z,2.67
2018-04-13T03:04:26.319Z,3.17
2018-04-13T03:06:53.836Z,3.27
2018-04-13T03:09:21.404Z,3.70
2018-04-13T03:11:48.931Z,3.13
2018-04-13T03:14:16.482Z,2.92
2018-04-13T03:16:44.682Z,2.87
2018-04-13T03:19:12.206Z,3.70
2018-04-13T03:21:40.490Z,2.62
2018-04-13T03:24:08.798Z,2.77
2018-04-13T03:26:36.305Z,3.50
2018-04-13T03:29:03.899Z,2.80
2018-04-13T03:31:31.470Z,3.20
2018-04-13T03:33:58.992Z,3.27
2018-04-13T03:36:26.546Z,3.00
2018-04-13T03:38:55.383Z,3.37
2018-04-13T03:41:23.614Z,4.10
2018-04-13T03:43:51.207Z,3.10
2018-04-13T03:46:18.768Z,3.00
2018-04-13T03:48:46.281Z,3.37
2018-04-13T03:51:16.329Z,3.53
2018-04-13T03:53:44.007Z,3.87
2018-04-13T03:56:11.552Z,3.08
2018-04-13T03:58:39.094Z,3.33
2018-04-13T04:01:07.449Z,3.05
2018-04-13T04:03:34.966Z,2.70
2018-04-13T04:06:02.536Z,3.10
2018-04-13T04:08:30.088Z,3.67
2018-04-13T04:10:57.676Z,3.03
2018-04-13T04:13:25.211Z,2.60
2018-04-13T04:15:52.781Z,3.37
2018-04-13T04:18:20.366Z,3.50
2018-04-13T04:21:00.177Z,2.47
2018-04-13T04:23:39.499Z,3.80
2018-04-13T04:26:21.779Z,3.03
2018-04-13T04:28:49.370Z,2.95
2018-04-13T04:31:16.917Z,2.87
2018-04-13T04:33:44.469Z,2.97
2018-04-13T04:36:12.020Z,2.97
2018-04-13T04:38:39.581Z,3.40
2018-04-13T04:41:07.268Z,3.53
2018-04-13T04:43:35.443Z,3.05
2018-04-13T04:46:03.032Z,3.77
2018-04-13T04:48:31.774Z,4.55
2018-04-13T04:50:59.348Z,4.17
2018-04-13T04:53:26.930Z,3.90
2018-04-13T04:55:54.531Z,3.10
2018-04-13T04:58:22.413Z,3.55
2018-04-13T05:00:50.456Z,4.40
2018-04-13T05:03:19.416Z,5.90
2018-04-13T05:05:47.058Z,4.30
2018-04-13T05:08:15.748Z,5.37
2018-04-13T05:10:43.312Z,4.60
2018-04-13T05:13:15.441Z,4.50
2018-04-13T05:15:43.054Z,5.13
2018-04-13T05:18:10.646Z,4.67
2018-04-13T05:20:38.944Z,6.13
2018-04-13T05:23:06.487Z,3.70
2018-04-13T05:25:37.724Z,3.75
2018-04-13T05:28:05.358Z,3.90
2018-04-13T05:30:32.896Z,3.78
2018-04-13T05:33:00.487Z,3.60
2018-04-13T05:35:28.831Z,4.67
2018-04-13T05:37:56.651Z,4.73
2018-04-13T05:40:24.573Z,4.70
2018-04-13T05:42:52.475Z,4.57
2018-04-13T05:45:21.936Z,4.80
2018-04-13T05:47:50.140Z,10.10
2018-04-13T05:50:17.738Z,5.07
2018-04-13T05:52:45.267Z,4.03
2018-04-13T05:55:14.516Z,5.00
2018-04-13T05:57:42.047Z,5.47
2018-04-13T06:00:09.929Z,4.33
2018-04-13T06:02:37.571Z,4.60
2018-04-13T06:05:05.150Z,3.93
2018-04-13T06:07:32.687Z,4.60
2018-04-13T06:10:00.909Z,4.17
2018-04-13T06:12:28.438Z,3.55
2018-04-13T06:14:55.950Z,3.70
2018-04-13T06:17:24.347Z,3.60
2018-04-13T06:19:51.937Z,2.87
2018-04-13T06:22:19.472Z,3.40
2018-04-13T06:24:47.015Z,2.73
2018-04-13T06:27:15.531Z,2.83
2018-04-13T06:29:43.816Z,2.70
2018-04-13T06:32:11.596Z,12.33
2018-04-13T06:34:39.143Z,2.90
2018-04-13T06:37:06.891Z,2.30
2018-04-13T06:39:34.492Z,2.87
2018-04-13T06:42:02.063Z,2.47
2018-04-13T06:44:29.581Z,2.50
2018-04-13T06:46:57.841Z,2.50
2018-04-13T06:49:25.355Z,2.78
2018-04-13T06:51:53.655Z,1.70
2018-04-13T06:54:21.527Z,1.80
2018-04-13T06:56:49.049Z,4.00
2018-04-13T06:59:16.585Z,2.33
2018-04-13T07:01:44.123Z,1.90
2018-04-13T07:04:11.644Z,1.70
2018-04-13T07:06:39.957Z,2.50
2018-04-13T07:09:07.590Z,1.57
2018-04-13T07:11:36.221Z,1.60
2018-04-13T07:14:03.797Z,1.90
2018-04-13T07:16:31.839Z,2.07
2018-04-13T07:19:01.169Z,1.73
2018-04-13T07:21:28.699Z,1.60
2018-04-13T07:23:56.270Z,1.43
2018-04-13T07:26:23.809Z,4.00
2018-04-13T07:28:51.430Z,2.07
2018-04-13T07:31:19.770Z,1.43
2018-04-13T07:33:47.313Z,2.30
2018-04-13T07:36:20.228Z,1.67
2018-04-13T07:38:49.342Z,1.30
2018-04-13T07:41:17.595Z,2.70
2018-04-13T07:43:45.159Z,1.43
2018-04-13T07:46:13.652Z,1.07
2018-04-13T07:48:42.067Z,1.40
2018-04-13T07:51:10.476Z,1.57
2018-04-13T07:53:38.105Z,1.67
2018-04-13T07:56:05.656Z,1.10
2018-04-13T07:58:34.031Z,1.40
2018-04-13T08:01:02.379Z,1.20
2018-04-13T08:03:30.332Z,2.37
2018-04-13T08:05:59.062Z,1.50
2018-04-13T08:08:26.684Z,1.67
2018-04-13T08:10:54.207Z,1.77
2018-04-13T08:13:21.754Z,1.23
2018-04-13T08:15:49.310Z,0.90
2018-04-13T08:18:16.871Z,1.20
2018-04-13T08:20:44.391Z,1.33
2018-04-13T08:23:12.343Z,1.30
2018-04-13T08:25:39.873Z,1.33
2018-04-13T08:28:07.426Z,0.80
2018-04-13T08:30:34.983Z,0.80
2018-04-13T08:33:02.512Z,1.00
2018-04-13T08:35:30.841Z,1.20
2018-04-13T08:37:58.451Z,1.10
2018-04-13T08:40:26.009Z,0.90
2018-04-13T08:42:53.538Z,0.93
2018-04-13T08:45:22.399Z,1.23
2018-04-13T08:47:53.283Z,1.00
2018-04-13T08:50:21.583Z,1.10
2018-04-13T08:52:49.778Z,1.00
2018-04-13T08:55:19.330Z,1.25
2018-04-13T09:00:20.731Z,1.32
2018-04-13T09:02:49.083Z,1.07
2018-04-13T09:05:16.769Z,1.08
2018-04-13T09:07:44.981Z,1.27
2018-04-13T09:10:14.962Z,0.60
2018-04-13T09:12:42.617Z,0.90
2018-04-13T09:15:10.235Z,0.83
2018-04-13T09:17:37.751Z,1.30
2018-04-13T09:20:05.289Z,1.00
2018-04-13T09:22:35.738Z,0.93
2018-04-13T09:25:03.752Z,1.20
2018-04-13T09:27:31.290Z,0.98
2018-04-13T09:29:59.076Z,0.97
2018-04-13T09:32:27.159Z,1.00
2018-04-13T09:34:55.530Z,1.20
2018-04-13T09:37:23.701Z,0.75
2018-04-13T09:39:51.675Z,1.00
2018-04-13T09:42:19.329Z,1.20
2018-04-13T09:44:46.956Z,0.73
2018-04-13T09:47:25.462Z,0.80
2018-04-13T09:52:29.205Z,1.40
2018-04-13T09:54:56.722Z,0.83
2018-04-13T09:57:24.298Z,1.40
2018-04-13T09:59:52.708Z,1.40
2018-04-13T10:02:22.388Z,1.37
2018-04-13T10:04:55.928Z,1.30
2018-04-13T10:07:23.493Z,1.12
2018-04-13T10:09:51.819Z,0.90
2018-04-13T10:12:19.759Z,1.30
2018-04-13T10:14:47.325Z,1.10
2018-04-13T10:17:17.723Z,1.10
2018-04-13T10:19:46.051Z,1.00
2018-04-13T10:22:15.413Z,0.75
2018-04-13T10:24:43.744Z,0.90
2018-04-13T10:27:11.321Z,0.80
2018-04-13T10:29:38.901Z,0.90
2018-04-13T10:32:06.435Z,1.20
2018-04-13T10:34:34.500Z,1.27
2018-04-13T10:37:02.542Z,1.23
2018-04-13T10:39:30.122Z,1.25
2018-04-13T10:41:58.126Z,1.00
2018-04-13T10:44:25.766Z,1.30
2018-04-13T10:46:54.312Z,0.87
2018-04-13T10:49:21.975Z,1.50
2018-04-13T10:51:49.507Z,1.45
2018-04-13T10:54:18.147Z,1.30
2018-04-13T10:56:45.963Z,1.10
2018-04-13T10:59:24.365Z,1.47
2018-04-13T11:04:24.666Z,1.63
2018-04-13T11:06:52.217Z,0.90
2018-04-13T11:09:19.742Z,1.20
2018-04-13T11:11:47.914Z,1.10
2018-04-13T11:14:16.276Z,1.10
2018-04-13T11:16:44.582Z,1.10
2018-04-13T11:19:12.302Z,1.50
2018-04-13T11:21:40.754Z,1.00
2018-04-13T11:24:08.614Z,2.87
2018-04-13T11:26:36.171Z,1.27
2018-04-13T11:29:03.749Z,1.50
2018-04-13T11:31:31.327Z,2.08
2018-04-13T11:33:59.929Z,1.70
2018-04-13T11:36:27.464Z,3.75
2018-04-13T11:38:54.982Z,4.47
2018-04-13T11:41:22.575Z,5.17
2018-04-13T11:43:50.106Z,5.50
2018-04-13T11:46:18.539Z,4.70
2018-04-13T11:48:46.126Z,5.23
2018-04-13T11:51:25.594Z,5.23
2018-04-13T11:57:22.535Z,6.10
2018-04-13T11:59:50.086Z,5.10
2018-04-13T12:02:17.622Z,4.77
2018-04-13T12:04:45.190Z,5.40
2018-04-13T12:07:13.645Z,5.53
2018-04-13T12:09:41.158Z,5.10
2018-04-13T12:12:08.760Z,5.70
2018-04-13T12:14:38.011Z,5.53
2018-04-13T12:17:05.527Z,5.30
2018-04-13T12:19:33.616Z,5.12
2018-04-13T12:22:01.135Z,5.23
2018-04-13T12:24:29.443Z,5.15
2018-04-13T12:26:56.991Z,4.73
2018-04-13T12:29:24.564Z,5.30
2018-04-13T12:31:52.114Z,5.80
2018-04-13T12:34:19.681Z,5.30
2018-04-13T12:36:47.226Z,5.83
2018-04-13T12:39:15.500Z,6.63
2018-04-13T12:41:44.235Z,7.37
2018-04-13T12:44:11.764Z,6.60
2018-04-13T12:46:39.301Z,3.07
2018-04-13T12:49:07.619Z,3.20
2018-04-13T12:51:35.163Z,3.50
2018-04-13T12:54:02.852Z,4.30
2018-04-13T12:56:30.522Z,1.90
2018-04-13T12:58:59.176Z,2.87
2018-04-13T13:01:26.720Z,7.37
2018-04-13T13:03:54.604Z,1.97
2018-04-13T13:06:22.146Z,2.30
2018-04-13T13:08:49.687Z,2.07
2018-04-13T13:11:17.732Z,2.65
2018-04-13T13:13:45.264Z,2.83
2018-04-13T13:16:14.781Z,1.97
2018-04-13T13:18:42.357Z,1.73
2018-04-13T13:21:10.750Z,1.90
2018-04-13T13:23:38.285Z,2.00
2018-04-13T13:26:06.309Z,1.60
2018-04-13T13:28:33.832Z,2.53
2018-04-13T13:31:01.655Z,2.30
2018-04-13T13:33:30.015Z,2.57
2018-04-13T13:35:57.561Z,3.23
2018-04-13T13:38:25.096Z,2.90
2018-04-13T13:40:52.710Z,2.50
2018-04-13T13:43:20.357Z,2.58
2018-04-13T13:45:47.982Z,2.50
2018-04-13T13:48:16.721Z,2.10
2018-04-13T13:50:45.396Z,2.10
2018-04-13T13:53:25.478Z,1.87
2018-04-13T13:58:23.058Z,2.00
2018-04-13T14:00:52.175Z,2.00
2018-04-13T14:03:19.735Z,2.20
2018-04-13T14:05:48.036Z,2.17
2018-04-13T14:08:17.003Z,2.50
2018-04-13T14:10:44.532Z,2.40
2018-04-13T14:13:12.061Z,1.80
2018-04-13T14:15:39.606Z,2.12
2018-04-13T14:18:07.147Z,10.50
2018-04-13T14:20:35.439Z,16.08
2018-04-13T14:23:02.984Z,16.77
2018-04-13T14:25:31.277Z,16.85
2018-04-13T14:27:58.844Z,16.30
2018-04-13T14:30:26.818Z,13.03
2018-04-13T14:32:54.463Z,12.50
2018-04-13T14:35:22.009Z,12.27
2018-04-13T14:37:51.952Z,10.90
2018-04-13T14:40:19.489Z,9.23
2018-04-13T14:42:47.035Z,8.77
2018-04-13T14:45:25.446Z,7.05
2018-04-13T14:50:56.626Z,8.77
2018-04-13T14:53:24.124Z,6.93
2018-04-13T14:55:51.660Z,6.65
2018-04-13T14:58:21.241Z,6.30
2018-04-13T15:00:48.823Z,5.40
2018-04-13T15:03:16.766Z,6.33
2018-04-13T15:05:44.351Z,6.23
2018-04-13T15:08:14.148Z,6.90
2018-04-13T15:10:41.670Z,6.27
2018-04-13T15:13:09.991Z,6.00
2018-04-13T15:15:37.540Z,6.30
2018-04-13T15:18:34.682Z,7.40
2018-04-13T15:21:02.407Z,9.35
2018-04-13T15:23:29.923Z,8.50
2018-04-13T15:25:57.549Z,6.80
2018-04-13T15:28:25.322Z,8.30
2018-04-13T15:30:52.844Z,8.20
2018-04-13T15:33:20.982Z,7.55
2018-04-13T15:35:48.611Z,8.63
2018-04-13T15:38:16.479Z,8.95
2018-04-13T15:40:44.806Z,7.20
2018-04-13T15:43:12.414Z,7.77
2018-04-13T15:45:40.056Z,8.33
2018-04-13T15:48:07.673Z,8.15
2018-04-13T15:50:35.190Z,8.90
2018-04-13T15:53:03.587Z,8.40
2018-04-13T15:55:31.942Z,8.23
2018-04-13T15:57:59.471Z,8.55
2018-04-13T16:00:27.856Z,8.50
2018-04-13T16:02:55.478Z,8.60
2018-04-13T16:05:23.078Z,10.43
2018-04-13T16:07:50.633Z,8.47
2018-04-13T16:10:18.198Z,8.43
2018-04-13T16:12:45.739Z,9.90
2018-04-13T16:15:26.193Z,9.20
2018-04-13T16:21:51.496Z,9.50
2018-04-13T16:24:19.814Z,10.04
2018-04-13T16:26:47.738Z,9.80
2018-04-13T16:29:17.299Z,9.93
2018-04-13T16:31:45.677Z,8.70
2018-04-13T16:34:27.768Z,8.80
2018-04-13T16:47:45.419Z,9.63
2018-04-13T16:50:14.518Z,10.63
2018-04-13T17:02:52.659Z,9.07
2018-04-13T17:05:20.223Z,9.30
2018-04-13T17:07:48.170Z,10.40
2018-04-13T17:10:17.207Z,10.05
2018-04-13T17:12:48.563Z,10.77
2018-04-13T17:15:16.812Z,10.38
2018-04-13T17:17:44.539Z,9.93
2018-04-13T17:20:12.844Z,9.60
2018-04-13T17:22:40.579Z,9.03
2018-04-13T17:25:08.649Z,9.63
2018-04-13T17:27:36.222Z,9.30
2018-04-13T17:30:03.838Z,8.87
2018-04-13T17:32:31.483Z,9.53
2018-04-13T17:34:59.819Z,12.07
2018-04-13T17:37:27.478Z,19.08
2018-04-13T17:39:55.056Z,16.17
2018-04-13T17:42:22.631Z,13.57
2018-04-13T17:44:50.969Z,16.10
2018-04-13T17:47:18.966Z,12.18
2018-04-13T17:49:47.383Z,10.90
2018-04-13T17:52:16.282Z,14.63
2018-04-13T17:54:43.886Z,12.68
2018-04-13T17:57:11.480Z,11.57
2018-04-13T17:59:39.111Z,14.73
2018-04-13T18:02:06.668Z,16.97
2018-04-13T18:04:34.982Z,12.87
2018-04-13T18:07:02.528Z,17.40
2018-04-13T18:09:32.772Z,25.47
2018-04-13T18:12:00.371Z,13.10
2018-04-13T18:14:27.920Z,13.65
2018-04-13T18:16:55.499Z,12.30
2018-04-13T18:19:23.032Z,10.80
2018-04-13T18:21:50.560Z,9.90
2018-04-13T18:24:18.222Z,11.80
2018-04-13T18:29:44.853Z,10.40
2018-04-13T18:32:14.067Z,14.50
2018-04-13T18:37:17.204Z,15.50
2018-04-13T18:39:44.767Z,15.47
2018-04-13T18:42:12.288Z,13.67
2018-04-13T18:44:39.855Z,13.17
2018-04-13T18:47:16.206Z,14.30
2018-04-13T18:49:43.860Z,13.00
2018-04-13T18:52:18.397Z,10.70
2018-04-13T18:54:45.958Z,10.10
2018-04-13T18:57:23.616Z,11.05
2018-04-13T19:03:14.093Z,12.63
2018-04-13T19:05:41.722Z,12.55
2018-04-13T19:08:09.294Z,15.57
2018-04-13T19:10:38.674Z,14.87
2018-04-13T19:13:06.384Z,14.03
2018-04-13T19:15:34.014Z,16.42
2018-04-13T19:18:01.618Z,13.60
2018-04-13T19:20:29.149Z,12.40
2018-04-13T19:22:57.535Z,11.00
2018-04-13T19:25:25.232Z,11.35
2018-04-13T19:27:52.796Z,13.20
2018-04-13T19:30:20.347Z,12.50
2018-04-13T19:32:48.274Z,13.40
2018-04-13T19:35:16.594Z,12.37
2018-04-13T19:37:44.147Z,14.37
2018-04-13T19:40:11.887Z,13.97
2018-04-13T19:42:43.424Z,13.77
2018-04-13T19:45:10.952Z,12.87
2018-04-13T19:47:38.518Z,12.47
2018-04-13T19:50:06.948Z,14.37
2018-04-13T19:52:34.575Z,13.57
2018-04-13T19:55:02.471Z,12.63
2018-04-13T19:57:30.090Z,12.90
2018-04-13T19:59:57.632Z,13.37
2018-04-13T20:02:25.215Z,13.40
2018-04-13T20:04:52.800Z,13.70
2018-04-13T20:07:20.442Z,12.95
2018-04-13T20:09:48.267Z,15.57
2018-04-13T20:12:19.647Z,18.02
2018-04-13T20:14:47.327Z,17.67
2018-04-13T20:17:16.530Z,18.70
2018-04-13T20:19:44.938Z,19.63
2018-04-13T20:22:12.547Z,18.53
2018-04-13T20:24:41.046Z,19.87
2018-04-13T20:27:08.628Z,18.87
2018-04-13T20:29:37.136Z,23.43
2018-04-13T20:32:04.816Z,15.57
2018-04-13T20:34:32.374Z,14.35
2018-04-13T20:37:00.693Z,13.70
2018-04-13T20:39:28.862Z,14.60
2018-04-13T20:41:56.446Z,14.33
2018-04-13T20:44:24.003Z,15.00
2018-04-13T20:46:51.770Z,15.57
2018-04-13T20:49:19.460Z,14.73
2018-04-13T20:51:46.967Z,15.03
2018-04-13T20:54:15.551Z,15.18
2018-04-13T20:56:43.087Z,14.57
2018-04-13T20:59:10.647Z,15.03
2018-04-13T21:01:38.557Z,15.23
2018-04-13T21:04:06.112Z,15.13
2018-04-13T21:06:33.635Z,14.80
2018-04-13T21:09:01.210Z,15.13
2018-04-13T21:11:28.768Z,16.90
2018-04-13T21:13:56.507Z,17.00
2018-04-13T21:16:24.128Z,17.15
2018-04-13T21:18:51.670Z,17.43
2018-04-13T21:21:19.210Z,18.27
2018-04-13T21:23:47.183Z,16.80
2018-04-13T21:26:17.286Z,17.30
2018-04-13T21:28:44.806Z,16.27
2018-04-13T21:31:12.369Z,15.40
2018-04-13T21:33:39.902Z,17.30
2018-04-13T21:36:07.416Z,16.40
2018-04-13T21:38:35.008Z,16.40
2018-04-13T21:41:02.606Z,16.83
2018-04-13T21:43:30.909Z,18.47
2018-04-13T21:45:59.075Z,17.67
2018-04-13T21:48:27.364Z,17.98
2018-04-13T21:50:54.927Z,16.80
2018-04-13T21:53:22.717Z,17.85
2018-04-13T21:55:50.254Z,26.80
2018-04-13T21:58:17.779Z,25.30
2018-04-13T22:00:46.115Z,26.00
2018-04-13T22:03:14.650Z,25.90
2018-04-13T22:05:42.244Z,25.83
2018-04-13T22:08:10.188Z,18.33
2018-04-13T22:10:37.771Z,17.97
2018-04-13T22:13:16.940Z,16.13
2018-04-13T22:15:45.042Z,17.10
2018-04-13T22:18:14.286Z,17.97
2018-04-13T22:20:41.927Z,17.33
2018-04-13T22:23:09.446Z,17.60
2018-04-13T22:25:37.763Z,17.80
2018-04-13T22:28:05.723Z,18.80
2018-04-13T22:30:33.312Z,19.75
2018-04-13T22:33:00.884Z,20.27
2018-04-13T22:35:28.478Z,21.53
2018-04-13T22:37:56.032Z,20.07
2018-04-13T22:40:23.594Z,19.47
2018-04-13T22:42:51.929Z,22.23
2018-04-13T22:48:08.361Z,19.07
2018-04-13T22:50:35.894Z,19.73
2018-04-13T22:53:03.437Z,20.87
2018-04-13T22:55:33.284Z,20.90
2018-04-13T22:58:00.827Z,21.53
2018-04-13T23:00:29.156Z,21.12
2018-04-13T23:02:57.493Z,19.83
2018-04-13T23:05:25.029Z,21.02
2018-04-13T23:07:53.063Z,20.37
2018-04-13T23:10:20.973Z,21.40
2018-04-13T23:12:48.557Z,20.55
2018-04-13T23:15:16.461Z,20.60
2018-04-13T23:17:44.545Z,22.20
2018-04-13T23:20:12.083Z,26.83
2018-04-13T23:22:40.379Z,24.30
2018-04-13T23:25:07.934Z,24.07
2018-04-13T23:27:35.472Z,25.07
2018-04-13T23:30:03.787Z,25.80
2018-04-13T23:32:31.673Z,25.88
2018-04-13T23:34:59.245Z,24.90
2018-04-13T23:37:26.964Z,26.60
2018-04-13T23:39:54.640Z,37.83
2018-04-13T23:42:22.243Z,26.70
2018-04-13T23:44:51.960Z,25.90
2018-04-13T23:47:20.295Z,28.38
2018-04-13T23:49:47.826Z,25.37
2018-04-13T23:52:17.228Z,24.30
2018-04-13T23:54:44.828Z,25.10
2018-04-13T23:57:12.348Z,23.43
2018-04-13T23:59:39.908Z,25.83
